Time;durP1;ratioP1;P1;durP2;ratioP2;P2;SDS_P1;SDS_P2;PMS_P1;PMS_P2;Temp;Humidity;BMP_temperature;BMP_pressure;BME280_temperature;BME280_humidity;BME280_pressure;Samples;Min_cycle;Max_cycle;Signal;HPM_P1;HPM_P2
2021/03/26 00:00:46;;;;;;;3.05;2.75;;;20.90;67.40;;;;;;5102888;28;20030;-38
2021/03/26 00:03:14;;;;;;;2.85;2.55;;;20.90;68.10;;;;;;5102038;28;20024;-38
2021/03/26 00:05:42;;;;;;;2.90;2.70;;;20.80;67.20;;;;;;5102892;28;20031;-37
2021/03/26 00:08:10;;;;;;;3.33;3.03;;;20.80;67.20;;;;;;5102531;28;20055;-38
2021/03/26 00:10:36;;;;;;;3.78;3.08;;;20.80;67.20;;;;;;5102707;28;20028;-37
2021/03/26 00:13:02;;;;;;;3.83;2.70;;;20.80;67.30;;;;;;5102851;28;20031;-41
2021/03/26 00:15:28;;;;;;;3.30;3.00;;;20.80;67.30;;;;;;5084800;28;20035;-38
2021/03/26 00:17:54;;;;;;;3.08;2.85;;;20.80;67.30;;;;;;5102485;28;20028;-37
2021/03/26 00:20:21;;;;;;;3.53;3.22;;;20.80;67.20;;;;;;5102738;28;20036;-38
2021/03/26 00:22:47;;;;;;;3.30;3.00;;;20.80;67.20;;;;;;5102835;28;20109;-38
2021/03/26 00:25:14;;;;;;;4.55;3.15;;;20.90;67.20;;;;;;5102627;28;20031;-37
2021/03/26 00:27:40;;;;;;;3.25;2.95;;;20.80;67.10;;;;;;5083835;28;20035;-37
2021/03/26 00:30:08;;;;;;;3.35;3.05;;;20.80;66.90;;;;;;5102200;28;20580;-37
2021/03/26 00:32:35;;;;;;;3.78;3.20;;;20.90;66.90;;;;;;5102197;28;20038;-38
2021/03/26 00:35:01;;;;;;;3.08;2.83;;;20.90;67.00;;;;;;5102683;28;20032;-38
2021/03/26 00:37:27;;;;;;;2.80;2.60;;;20.90;67.00;;;;;;5102490;28;20063;-38
2021/03/26 00:39:53;;;;;;;3.10;2.80;;;20.90;67.00;;;;;;5102597;28;20091;-38
2021/03/26 00:42:19;;;;;;;3.33;2.70;;;20.90;67.10;;;;;;5102301;28;20024;-38
2021/03/26 00:44:45;;;;;;;3.15;2.80;;;20.90;67.10;;;;;;5105373;28;20031;-37
2021/03/26 00:47:12;;;;;;;3.40;3.10;;;20.90;67.10;;;;;;5105820;28;20047;-38
2021/03/26 00:49:38;;;;;;;3.78;2.80;;;20.90;67.10;;;;;;5105791;28;20060;-38
2021/03/26 00:52:05;;;;;;;2.97;2.72;;;20.90;66.90;;;;;;5105884;28;20046;-38
2021/03/26 00:54:31;;;;;;;3.40;3.10;;;20.90;66.90;;;;;;5105658;28;20035;-37
2021/03/26 00:56:58;;;;;;;2.80;2.60;;;20.90;66.90;;;;;;5087713;28;20024;-38
2021/03/26 00:59:24;;;;;;;3.17;2.87;;;20.90;66.90;;;;;;5105474;28;20024;-38
2021/03/26 01:01:50;;;;;;;3.10;2.80;;;20.90;66.90;;;;;;5105564;28;20116;-38
2021/03/26 01:04:16;;;;;;;3.40;3.10;;;20.90;67.00;;;;;;5105662;28;20150;-38
2021/03/26 01:06:42;;;;;;;3.20;2.90;;;20.90;67.00;;;;;;5105610;28;20056;-38
2021/03/26 01:09:09;;;;;;;3.10;2.85;;;20.90;67.70;;;;;;5105152;28;20036;-38
2021/03/26 01:11:36;;;;;;;3.33;2.90;;;20.90;66.90;;;;;;5105378;28;20028;-38
2021/03/26 01:14:04;;;;;;;2.90;2.70;;;20.90;66.90;;;;;;5104279;28;20028;-38
2021/03/26 01:16:30;;;;;;;3.10;2.80;;;20.90;66.80;;;;;;5086616;28;20028;-38
2021/03/26 01:18:57;;;;;;;3.42;3.08;;;20.90;66.70;;;;;;5105052;28;20549;-38
2021/03/26 01:21:28;;;;;;;3.23;2.93;;;20.90;66.70;;;;;;5105229;28;20032;-38
2021/03/26 01:23:55;;;;;;;3.47;2.80;;;20.90;66.70;;;;;;5105185;28;20035;-38
2021/03/26 01:26:21;;;;;;;3.00;2.80;;;20.90;66.70;;;;;;5105154;28;20028;-38
2021/03/26 01:28:47;;;;;;;3.55;3.25;;;20.90;66.80;;;;;;5104841;28;20099;-38
2021/03/26 01:31:14;;;;;;;3.13;2.83;;;20.90;66.90;;;;;;5086682;28;20028;-38
2021/03/26 01:33:40;;;;;;;3.35;3.05;;;20.90;66.90;;;;;;5105102;28;20143;-38
2021/03/26 01:36:07;;;;;;;4.57;3.20;;;20.90;66.90;;;;;;5104918;28;20099;-39
2021/03/26 01:38:33;;;;;;;3.67;3.20;;;20.90;66.90;;;;;;5104509;28;20095;-38
2021/03/26 01:41:03;;;;;;;3.00;2.80;;;20.90;66.90;;;;;;5086754;28;20062;-38
2021/03/26 01:43:35;;;;;;;3.60;3.08;;;20.90;66.90;;;;;;5104837;28;20508;-38
2021/03/26 01:46:02;;;;;;;3.75;2.78;;;20.90;66.90;;;;;;5086448;28;20795;-38
2021/03/26 01:48:51;;;;;;;3.17;2.87;;;20.90;66.90;;;;;;5104638;28;20043;-38
2021/03/26 01:51:38;;;;;;;3.35;3.05;;;20.90;66.90;;;;;;5104347;28;20032;-37
2021/03/26 01:54:05;;;;;;;3.50;3.05;;;20.90;66.90;;;;;;5104016;28;20876;-38
2021/03/26 01:56:32;;;;;;;3.67;3.38;;;20.90;67.00;;;;;;5104724;28;20039;-38
2021/03/26 01:58:58;;;;;;;3.33;3.03;;;20.90;66.90;;;;;;5104481;28;20035;-38
2021/03/26 02:01:27;;;;;;;3.28;2.97;;;20.90;66.90;;;;;;5104380;28;20052;-38
2021/03/26 02:03:57;;;;;;;3.30;3.00;;;20.90;66.90;;;;;;5065710;28;20066;-38
2021/03/26 02:06:34;;;;;;;3.13;2.92;;;20.90;66.80;;;;;;5083932;28;20036;-38
2021/03/26 02:09:18;;;;;;;3.35;3.05;;;20.90;66.90;;;;;;5082519;28;20036;-38
2021/03/26 02:11:51;;;;;;;3.28;2.97;;;20.90;66.90;;;;;;5083834;28;20093;-37
2021/03/26 02:14:22;;;;;;;4.88;3.33;;;20.90;67.00;;;;;;5099493;28;20028;-38
2021/03/26 02:16:49;;;;;;;3.67;3.33;;;20.90;67.00;;;;;;5124199;28;20024;-38
2021/03/26 02:19:26;;;;;;;3.67;3.33;;;20.90;67.00;;;;;;5123219;28;20034;-38
2021/03/26 02:21:53;;;;;;;3.45;3.00;;;20.90;67.00;;;;;;5117781;28;20084;-38
2021/03/26 02:24:19;;;;;;;3.25;3.05;;;20.90;67.00;;;;;;5084799;28;20024;-38
2021/03/26 02:26:47;;;;;;;3.53;3.22;;;20.90;66.90;;;;;;5104030;28;20032;-38
2021/03/26 02:29:22;;;;;;;3.38;3.08;;;20.90;66.90;;;;;;5103494;28;20046;-38
2021/03/26 02:32:07;;;;;;;3.50;3.20;;;20.90;66.90;;;;;;5103655;28;20017;-38
2021/03/26 02:34:33;;;;;;;3.33;3.03;;;20.90;66.90;;;;;;5085907;28;20032;-38
2021/03/26 02:37:06;;;;;;;3.90;3.50;;;20.90;66.90;;;;;;5103755;28;20552;-38
2021/03/26 02:39:41;;;;;;;3.17;2.88;;;20.90;66.90;;;;;;5103484;28;20039;-38
2021/03/26 02:42:41;;;;;;;3.83;3.17;;;20.90;67.00;;;;;;5085518;28;20021;-38
2021/03/26 02:45:22;;;;;;;3.25;2.95;;;20.90;66.90;;;;;;5086718;28;20118;-38
2021/03/26 02:47:55;;;;;;;3.28;2.97;;;20.90;66.90;;;;;;5104019;28;20065;-38
2021/03/26 02:50:40;;;;;;;3.42;3.13;;;20.90;66.90;;;;;;5085576;28;20035;-38
2021/03/26 02:53:06;;;;;;;5.28;3.13;;;20.90;66.80;;;;;;5103500;28;20028;-38
2021/03/26 02:55:42;;;;;;;3.47;3.15;;;20.90;66.90;;;;;;5103516;28;20032;-38
2021/03/26 02:58:22;;;;;;;3.47;3.13;;;20.90;66.80;;;;;;5103107;28;20095;-37
2021/03/26 03:00:51;;;;;;;3.20;2.90;;;20.90;66.80;;;;;;5068834;28;20032;-38
2021/03/26 03:03:25;;;;;;;3.20;2.90;;;20.90;66.90;;;;;;5085287;28;20024;-38
2021/03/26 03:06:09;;;;;;;4.00;3.60;;;21.00;66.90;;;;;;5084901;28;20092;-38
2021/03/26 03:08:36;;;;;;;4.28;3.17;;;21.00;66.80;;;;;;5070120;28;20220;-38
2021/03/26 03:11:16;;;;;;;3.53;3.22;;;21.00;67.00;;;;;;5068412;28;20032;-38
2021/03/26 03:13:48;;;;;;;3.70;3.28;;;21.00;67.00;;;;;;5085318;28;20036;-38
2021/03/26 03:16:24;;;;;;;3.47;3.17;;;21.00;67.00;;;;;;5068486;28;20036;-38
2021/03/26 03:19:06;;;;;;;3.95;3.55;;;21.00;67.00;;;;;;5086253;28;20038;-38
2021/03/26 03:21:34;;;;;;;3.22;2.92;;;21.00;67.00;;;;;;5067505;28;20044;-37
2021/03/26 03:24:21;;;;;;;3.20;2.90;;;21.00;67.00;;;;;;5102717;28;20091;-38
2021/03/26 03:27:19;;;;;;;3.30;3.00;;;21.00;66.80;;;;;;5086653;28;20481;-38
2021/03/26 03:30:01;;;;;;;4.63;3.50;;;21.00;66.80;;;;;;5039578;28;20041;-38
2021/03/26 03:33:01;;;;;;;3.20;3.00;;;21.00;67.00;;;;;;5037286;28;20030;-38
2021/03/26 03:35:34;;;;;;;3.22;2.92;;;21.00;67.00;;;;;;5060073;28;20029;-39
2021/03/26 03:38:19;;;;;;;3.20;2.90;;;21.00;67.00;;;;;;5043756;28;20037;-38
2021/03/26 03:41:03;;;;;;;3.45;2.63;;;21.00;66.90;;;;;;5043036;28;20059;-37
2021/03/26 03:43:32;;;;;;;3.30;3.00;;;21.00;66.90;;;;;;5061611;28;20028;-38
2021/03/26 03:46:30;;;;;;;3.65;3.03;;;21.00;66.90;;;;;;5043387;28;20041;-38
2021/03/26 03:49:13;;;;;;;3.25;2.95;;;21.00;66.90;;;;;;4980759;28;20081;-38
2021/03/26 03:51:44;;;;;;;3.65;3.20;;;21.00;66.80;;;;;;4996848;28;20039;-37
2021/03/26 03:54:24;;;;;;;3.67;3.38;;;21.00;66.90;;;;;;4995230;28;20038;-38
2021/03/26 03:57:00;;;;;;;4.60;3.13;;;21.00;67.00;;;;;;4980859;28;20032;-38
2021/03/26 03:59:50;;;;;;;3.50;3.20;;;21.00;67.10;;;;;;4979244;28;20042;-38
2021/03/26 04:02:31;;;;;;;3.30;3.00;;;21.00;67.10;;;;;;4996577;28;20037;-38
2021/03/26 04:05:18;;;;;;;3.63;3.28;;;21.00;67.10;;;;;;5004743;28;20541;-38
2021/03/26 04:08:20;;;;;;;2.92;2.63;;;21.00;67.00;;;;;;5076080;28;20083;-38
2021/03/26 04:10:51;;;;;;;3.30;3.00;;;21.00;66.90;;;;;;5073348;28;20029;-38
2021/03/26 04:13:28;;;;;;;3.17;2.88;;;21.00;67.10;;;;;;5046590;28;20206;-38
2021/03/26 04:15:57;;;;;;;3.13;2.80;;;21.00;67.20;;;;;;5060116;28;20811;-38
2021/03/26 04:18:27;;;;;;;3.47;3.08;;;21.10;67.20;;;;;;5078341;28;20040;-38
2021/03/26 04:21:06;;;;;;;3.13;2.83;;;21.00;67.10;;;;;;5063243;28;20029;-37
2021/03/26 04:23:39;;;;;;;3.45;2.90;;;21.00;66.90;;;;;;5079967;28;20040;-37
2021/03/26 04:26:08;;;;;;;3.15;2.90;;;21.00;66.80;;;;;;5138482;27;20090;-37
2021/03/26 04:28:35;;;;;;;3.80;3.20;;;21.00;66.90;;;;;;5126477;28;20715;-37
2021/03/26 04:31:10;;;;;;;3.38;3.05;;;21.00;66.80;;;;;;5110219;27;20031;-37
2021/03/26 04:33:36;;;;;;;3.50;3.20;;;21.00;66.70;;;;;;5107926;28;20035;-37
2021/03/26 04:36:04;;;;;;;3.05;2.78;;;21.00;66.80;;;;;;5126498;28;20023;-37
2021/03/26 04:38:48;;;;;;;3.70;3.30;;;21.10;66.90;;;;;;5108174;28;20026;-36
2021/03/26 04:41:25;;;;;;;3.47;3.17;;;21.10;66.90;;;;;;5107683;28;20055;-36
2021/03/26 04:44:14;;;;;;;3.80;3.42;;;21.10;66.90;;;;;;5108092;28;20062;-36
2021/03/26 04:46:51;;;;;;;3.40;3.10;;;21.10;67.10;;;;;;5097110;28;20043;-37
2021/03/26 04:49:27;;;;;;;3.65;3.10;;;21.10;67.20;;;;;;5105857;28;20446;-36
2021/03/26 04:51:59;;;;;;;3.40;3.10;;;21.10;67.20;;;;;;5072271;27;20028;-36
2021/03/26 04:54:48;;;;;;;3.25;2.83;;;21.10;67.20;;;;;;5111538;27;20454;-36
2021/03/26 04:57:25;;;;;;;3.58;3.10;;;21.10;67.20;;;;;;5146790;27;20105;-36
2021/03/26 05:00:18;;;;;;;3.80;3.40;;;21.10;67.30;;;;;;5128101;27;20118;-36
2021/03/26 05:03:02;;;;;;;3.83;3.00;;;21.10;67.10;;;;;;5113298;28;20212;-37
2021/03/26 05:05:28;;;;;;;3.85;3.28;;;21.10;67.20;;;;;;5125920;28;20026;-37
2021/03/26 05:07:58;;;;;;;3.78;3.28;;;21.10;67.20;;;;;;5107404;28;20043;-37
2021/03/26 05:10:25;;;;;;;3.65;3.15;;;21.10;67.30;;;;;;5107371;28;20724;-37
2021/03/26 05:13:00;;;;;;;3.30;3.00;;;21.10;67.10;;;;;;5107283;28;20028;-37
2021/03/26 05:15:54;;;;;;;3.50;3.20;;;21.10;67.80;;;;;;5115605;27;20275;-37
2021/03/26 05:18:53;;;;;;;3.55;3.13;;;21.10;67.00;;;;;;5107015;28;20035;-36
2021/03/26 05:21:43;;;;;;;3.30;3.00;;;21.10;67.00;;;;;;5093091;28;20023;-37
2021/03/26 05:24:14;;;;;;;3.63;3.22;;;21.10;67.00;;;;;;5090083;28;20298;-37
2021/03/26 05:26:40;;;;;;;4.13;3.65;;;21.10;67.10;;;;;;5086767;28;20035;-37
2021/03/26 05:29:08;;;;;;;3.78;3.20;;;21.10;67.80;;;;;;5103855;28;20043;-37
2021/03/26 05:31:44;;;;;;;4.65;3.70;;;21.10;67.20;;;;;;5092366;28;20035;-37
2021/03/26 05:34:32;;;;;;;4.00;3.60;;;21.10;67.30;;;;;;5107097;28;20046;-37
2021/03/26 05:37:22;;;;;;;4.03;3.20;;;21.10;67.30;;;;;;5109688;28;20024;-37
2021/03/26 05:39:50;;;;;;;4.05;3.58;;;21.10;67.30;;;;;;5109897;28;20027;-37
2021/03/26 05:42:52;;;;;;;5.00;3.40;;;21.10;67.20;;;;;;5106539;28;20059;-37
2021/03/26 05:45:41;;;;;;;4.43;3.33;;;21.10;67.20;;;;;;5090436;27;20035;-37
2021/03/26 05:48:51;;;;;;;4.07;3.42;;;21.10;67.30;;;;;;5126949;27;20035;-36
2021/03/26 05:51:55;;;;;;;3.95;3.58;;;21.10;67.20;;;;;;5041395;28;20041;-37
2021/03/26 05:54:52;;;;;;;4.03;3.45;;;21.10;67.20;;;;;;5001710;28;20037;-37
2021/03/26 05:57:24;;;;;;;4.47;3.03;;;21.10;67.20;;;;;;5002144;28;20022;-37
2021/03/26 06:00:23;;;;;;;3.58;3.13;;;21.10;67.10;;;;;;4985716;28;20038;-38
2021/03/26 06:03:07;;;;;;;4.03;3.20;;;21.10;67.10;;;;;;5017360;28;20076;-37
2021/03/26 06:06:35;;;;;;;4.15;3.10;;;21.10;67.10;;;;;;4990307;28;20114;-37
2021/03/26 06:09:19;;;;;;;3.92;3.53;;;21.10;67.80;;;;;;4943539;29;20525;-37
2021/03/26 06:12:11;;;;;;;3.92;3.53;;;21.10;67.10;;;;;;4943732;29;20040;-36
2021/03/26 06:15:14;;;;;;;3.50;3.20;;;21.10;67.00;;;;;;4913871;29;20092;-37
2021/03/26 06:18:14;;;;;;;3.88;2.97;;;21.10;67.00;;;;;;4924403;29;20044;-37
2021/03/26 06:20:48;;;;;;;3.65;3.35;;;21.10;67.20;;;;;;4924888;29;20040;-37
2021/03/26 06:23:51;;;;;;;4.50;3.20;;;21.10;67.30;;;;;;4908223;29;20040;-37
2021/03/26 06:26:39;;;;;;;3.72;3.25;;;21.10;67.20;;;;;;4924420;29;20035;-37
2021/03/26 06:29:34;;;;;;;3.90;3.45;;;21.10;67.20;;;;;;4962447;29;20077;-37
2021/03/26 06:32:11;;;;;;;3.80;3.50;;;21.10;67.20;;;;;;5007494;28;20037;-37
2021/03/26 06:34:52;;;;;;;3.92;3.20;;;21.10;67.20;;;;;;5056958;28;20021;-36
2021/03/26 06:37:33;;;;;;;3.78;3.30;;;21.00;67.20;;;;;;5040827;28;20470;-36
2021/03/26 06:40:22;;;;;;;3.42;3.13;;;21.00;67.20;;;;;;5057222;28;20033;-37
2021/03/26 06:43:17;;;;;;;3.08;2.78;;;21.00;67.90;;;;;;5029970;28;20090;-37
2021/03/26 06:45:59;;;;;;;3.88;3.30;;;21.00;67.10;;;;;;5131461;27;20035;-37
2021/03/26 06:48:50;;;;;;;3.22;2.92;;;21.10;67.20;;;;;;5105555;28;20758;-37
2021/03/26 06:51:37;;;;;;;3.90;3.47;;;21.10;67.10;;;;;;5108600;28;20097;-36
2021/03/26 06:54:16;;;;;;;3.17;2.88;;;21.00;67.10;;;;;;5124097;27;20487;-37
2021/03/26 06:57:07;;;;;;;3.30;3.00;;;21.00;67.00;;;;;;5144500;27;20034;-37
2021/03/26 07:00:01;;;;;;;3.50;3.15;;;21.10;67.20;;;;;;5144269;27;20489;-37
2021/03/26 07:02:54;;;;;;;3.70;3.30;;;21.00;67.10;;;;;;5130280;27;20035;-37
2021/03/26 07:05:23;;;;;;;3.30;3.00;;;21.00;67.10;;;;;;5106255;28;20027;-37
2021/03/26 07:08:14;;;;;;;3.20;2.90;;;21.00;67.10;;;;;;5123466;28;20461;-36
2021/03/26 07:10:45;;;;;;;3.28;2.97;;;21.10;67.20;;;;;;5090203;28;20110;-37
2021/03/26 07:13:40;;;;;;;3.50;3.00;;;21.00;67.20;;;;;;5104786;28;20024;-36
2021/03/26 07:16:50;;;;;;;3.45;3.15;;;21.00;67.10;;;;;;5137887;27;20034;-37
2021/03/26 07:19:42;;;;;;;3.70;3.10;;;21.00;67.10;;;;;;5143895;27;20038;-37
2021/03/26 07:22:26;;;;;;;3.75;3.45;;;21.00;67.20;;;;;;5143866;27;20038;-37
2021/03/26 07:25:24;;;;;;;3.75;3.10;;;21.00;67.20;;;;;;5110521;27;20027;-36
2021/03/26 07:28:15;;;;;;;3.30;3.00;;;21.00;67.20;;;;;;5143570;27;20031;-37
2021/03/26 07:31:19;;;;;;;3.30;3.00;;;21.00;67.20;;;;;;5143729;27;20090;-36
2021/03/26 07:34:03;;;;;;;3.22;2.92;;;21.00;67.10;;;;;;5102521;28;20059;-37
2021/03/26 07:37:00;;;;;;;3.58;2.72;;;21.00;67.20;;;;;;5084780;28;20024;-37
2021/03/26 07:39:48;;;;;;;2.88;2.67;;;21.00;67.20;;;;;;5084559;28;20764;-37
2021/03/26 07:42:29;;;;;;;3.63;3.10;;;21.00;67.10;;;;;;5087376;28;20024;-37
2021/03/26 07:45:23;;;;;;;3.05;2.72;;;21.00;67.10;;;;;;5111513;28;20034;-37
2021/03/26 07:48:04;;;;;;;3.50;3.20;;;21.00;67.00;;;;;;5109495;28;20024;-37
2021/03/26 07:50:50;;;;;;;3.25;2.95;;;21.00;67.00;;;;;;5125095;28;20117;-37
2021/03/26 07:53:35;;;;;;;3.50;3.00;;;21.00;67.10;;;;;;5129856;27;20472;-37
2021/03/26 07:56:41;;;;;;;3.30;3.00;;;21.00;67.00;;;;;;5143970;27;20030;-37
2021/03/26 07:59:18;;;;;;;3.25;2.95;;;21.00;67.20;;;;;;5114405;27;20019;-36
2021/03/26 08:02:03;;;;;;;3.33;3.03;;;21.00;67.20;;;;;;5105999;28;20020;-37
2021/03/26 08:04:32;;;;;;;3.35;3.05;;;21.00;67.20;;;;;;5127306;28;20785;-36
2021/03/26 08:07:23;;;;;;;3.22;2.92;;;21.00;67.30;;;;;;5127151;28;20035;-37
2021/03/26 08:10:08;;;;;;;3.17;2.80;;;21.00;67.30;;;;;;5108709;28;20074;-37
2021/03/26 08:12:53;;;;;;;3.10;2.80;;;21.00;67.30;;;;;;5108514;28;20038;-37
2021/03/26 08:15:45;;;;;;;3.85;3.05;;;21.00;67.30;;;;;;5130199;27;20035;-37
2021/03/26 08:18:37;;;;;;;4.28;3.03;;;21.00;67.30;;;;;;5092592;28;20050;-37
2021/03/26 08:21:18;;;;;;;3.17;2.88;;;21.00;67.30;;;;;;5126247;28;20039;-37
2021/03/26 08:23:54;;;;;;;3.58;2.97;;;21.00;67.30;;;;;;5126587;28;20053;-37
2021/03/26 08:26:37;;;;;;;3.03;2.80;;;21.00;67.30;;;;;;5125583;28;20035;-37
2021/03/26 08:29:24;;;;;;;3.30;3.00;;;21.00;67.20;;;;;;5107746;28;20043;-37
2021/03/26 08:31:59;;;;;;;2.90;2.70;;;21.00;67.20;;;;;;5119021;27;20797;-37
2021/03/26 08:34:47;;;;;;;3.33;3.03;;;21.00;67.30;;;;;;5129405;27;20136;-37
2021/03/26 08:37:55;;;;;;;3.05;2.85;;;21.00;67.20;;;;;;5128769;27;20044;-37
2021/03/26 08:40:42;;;;;;;3.00;2.72;;;21.00;67.20;;;;;;5113928;27;20035;-37
2021/03/26 08:43:09;;;;;;;3.08;2.78;;;21.00;67.30;;;;;;5130279;27;20023;-37
2021/03/26 08:46:09;;;;;;;3.85;3.10;;;21.00;67.30;;;;;;5098079;28;20024;-37
2021/03/26 08:48:44;;;;;;;3.65;2.92;;;20.90;67.30;;;;;;5087520;28;20040;-37
2021/03/26 08:51:28;;;;;;;2.80;2.50;;;21.00;67.40;;;;;;5105745;28;20031;-37
2021/03/26 08:54:13;;;;;;;3.50;3.20;;;20.90;67.30;;;;;;5141528;27;20023;-38
2021/03/26 08:57:08;;;;;;;3.42;2.97;;;20.90;67.40;;;;;;5146800;27;20283;-37
2021/03/26 09:00:05;;;;;;;3.63;2.95;;;20.90;67.40;;;;;;5128298;27;20075;-37
2021/03/26 09:02:44;;;;;;;4.20;3.17;;;21.00;67.40;;;;;;5113829;28;20046;-37
2021/03/26 09:05:17;;;;;;;3.67;3.15;;;20.90;67.40;;;;;;5106592;28;20023;-37
2021/03/26 09:07:46;;;;;;;3.40;2.75;;;20.90;67.50;;;;;;5107266;28;20055;-37
2021/03/26 09:10:21;;;;;;;3.20;2.90;;;20.90;67.50;;;;;;5125495;28;20043;-37
2021/03/26 09:13:22;;;;;;;3.38;2.95;;;20.90;67.40;;;;;;5107375;28;20020;-37
2021/03/26 09:16:04;;;;;;;3.20;2.90;;;20.90;67.40;;;;;;5113974;28;20028;-37
2021/03/26 09:18:39;;;;;;;3.72;2.97;;;20.90;67.40;;;;;;5087812;28;20036;-37
2021/03/26 09:21:11;;;;;;;4.15;3.00;;;20.90;67.40;;;;;;5123737;28;20028;-37
2021/03/26 09:23:53;;;;;;;3.47;3.17;;;20.90;67.40;;;;;;5141146;27;20031;-37
2021/03/26 09:26:34;;;;;;;3.13;2.90;;;20.90;67.30;;;;;;5146371;27;20023;-37
2021/03/26 09:29:04;;;;;;;3.63;3.00;;;20.90;67.40;;;;;;5145909;27;20050;-37
2021/03/26 09:31:45;;;;;;;4.35;3.20;;;20.90;67.50;;;;;;5122744;28;20031;-37
2021/03/26 09:34:23;;;;;;;4.40;3.45;;;20.90;67.50;;;;;;5091526;28;20031;-37
2021/03/26 09:37:08;;;;;;;3.15;2.85;;;20.90;67.50;;;;;;5125647;28;20096;-37
2021/03/26 09:39:35;;;;;;;3.00;2.75;;;20.90;67.50;;;;;;5091729;28;20033;-37
2021/03/26 09:42:23;;;;;;;3.58;3.28;;;20.90;67.50;;;;;;5090000;28;20034;-37
2021/03/26 09:45:19;;;;;;;3.63;3.05;;;20.90;67.50;;;;;;5095325;27;20024;-37
2021/03/26 09:48:07;;;;;;;3.85;3.17;;;20.90;67.60;;;;;;5119151;27;20031;-37
2021/03/26 09:50:38;;;;;;;4.10;3.55;;;20.90;67.60;;;;;;5145566;27;20031;-37
2021/03/26 09:53:10;;;;;;;3.97;3.53;;;20.90;67.60;;;;;;5116559;28;20722;-37
2021/03/26 09:55:37;;;;;;;3.83;3.20;;;20.90;67.60;;;;;;5124834;28;20027;-37
2021/03/26 09:58:20;;;;;;;3.30;3.00;;;20.90;67.60;;;;;;5125166;28;20035;-37
2021/03/26 10:01:02;;;;;;;3.35;3.05;;;20.90;67.60;;;;;;5106380;28;20083;-37
2021/03/26 10:03:50;;;;;;;3.40;3.10;;;20.90;67.60;;;;;;5086019;28;20197;-37
2021/03/26 10:06:54;;;;;;;3.63;3.25;;;20.90;67.50;;;;;;5110218;27;20043;-37
2021/03/26 10:09:25;;;;;;;3.38;3.08;;;20.90;67.40;;;;;;5110983;27;20039;-36
2021/03/26 10:12:00;;;;;;;4.25;3.20;;;20.90;67.50;;;;;;5127318;27;20025;-37
2021/03/26 10:14:34;;;;;;;4.00;3.60;;;20.90;67.50;;;;;;5131222;27;20031;-37
2021/03/26 10:17:12;;;;;;;3.80;3.17;;;20.90;67.50;;;;;;5089831;28;20053;-37
2021/03/26 10:19:44;;;;;;;3.78;3.40;;;20.90;67.50;;;;;;5124165;27;20031;-37
2021/03/26 10:22:31;;;;;;;3.38;3.08;;;20.90;67.60;;;;;;5089711;28;20052;-37
2021/03/26 10:25:30;;;;;;;3.55;3.15;;;20.90;67.60;;;;;;5124536;28;20346;-37
2021/03/26 10:28:17;;;;;;;3.53;3.22;;;20.90;67.60;;;;;;5101202;28;20044;-37
2021/03/26 10:30:47;;;;;;;3.63;3.10;;;20.90;67.60;;;;;;5123929;28;20461;-37
2021/03/26 10:33:15;;;;;;;4.72;3.35;;;20.90;67.60;;;;;;5085797;28;20024;-37
2021/03/26 10:35:55;;;;;;;3.25;2.95;;;20.80;67.40;;;;;;5085669;28;20028;-37
2021/03/26 10:38:29;;;;;;;3.75;3.40;;;20.90;67.50;;;;;;5103790;28;20031;-37
2021/03/26 10:41:14;;;;;;;3.50;3.20;;;20.90;67.60;;;;;;5085118;28;20035;-37
2021/03/26 10:43:49;;;;;;;4.13;3.10;;;20.90;67.60;;;;;;5103741;28;20031;-37
2021/03/26 10:46:22;;;;;;;3.78;3.45;;;20.90;67.50;;;;;;5116802;27;20062;-37
2021/03/26 10:48:59;;;;;;;4.00;3.03;;;20.80;68.30;;;;;;5125985;27;20031;-37
2021/03/26 10:52:17;;;;;;;4.18;3.45;;;20.90;67.60;;;;;;5144266;27;20023;-37
2021/03/26 10:54:58;;;;;;;4.55;3.50;;;20.90;67.50;;;;;;5048968;28;20033;-37
2021/03/26 10:57:37;;;;;;;3.42;3.13;;;20.90;67.50;;;;;;5060418;28;20025;-37
2021/03/26 11:00:16;;;;;;;4.28;3.30;;;20.80;67.50;;;;;;5060250;28;20037;-37
2021/03/26 11:02:45;;;;;;;3.55;3.25;;;20.80;67.50;;;;;;5060138;28;20450;-37
2021/03/26 11:05:26;;;;;;;3.75;3.35;;;20.80;67.50;;;;;;5060388;28;20032;-37
2021/03/26 11:07:58;;;;;;;3.88;3.28;;;20.80;67.60;;;;;;5060120;28;20045;-37
2021/03/26 11:10:28;;;;;;;3.80;3.38;;;20.80;67.50;;;;;;5060096;28;20036;-37
2021/03/26 11:12:59;;;;;;;3.42;3.13;;;20.80;67.50;;;;;;5060204;28;20036;-37
2021/03/26 11:15:32;;;;;;;3.95;3.15;;;20.80;67.50;;;;;;5068767;28;20167;-37
2021/03/26 11:18:00;;;;;;;3.60;3.30;;;20.80;67.60;;;;;;5063102;28;20031;-37
2021/03/26 11:20:40;;;;;;;3.90;3.50;;;20.80;67.50;;;;;;5063214;28;20556;-37
2021/03/26 11:23:24;;;;;;;3.92;3.40;;;20.80;67.50;;;;;;5088193;28;20043;-37
2021/03/26 11:25:52;;;;;;;4.38;3.80;;;20.80;67.50;;;;;;5092048;28;20040;-37
2021/03/26 11:28:42;;;;;;;3.55;3.17;;;20.80;67.60;;;;;;5104644;28;20016;-37
2021/03/26 11:31:27;;;;;;;3.65;3.35;;;20.80;67.60;;;;;;5122968;28;20073;-37
2021/03/26 11:34:10;;;;;;;3.85;3.45;;;20.80;67.60;;;;;;5123249;28;20095;-37
2021/03/26 11:36:42;;;;;;;3.85;3.47;;;20.80;67.60;;;;;;5123297;28;20031;-37
2021/03/26 11:39:28;;;;;;;3.97;3.50;;;20.80;67.70;;;;;;5123368;28;20028;-37
2021/03/26 11:42:07;;;;;;;3.97;3.50;;;20.80;67.70;;;;;;5104931;28;20024;-38
2021/03/26 11:44:44;;;;;;;3.97;3.58;;;20.80;67.70;;;;;;5108694;28;20019;-37
2021/03/26 11:47:37;;;;;;;3.85;3.38;;;20.80;67.70;;;;;;5109268;28;20058;-38
2021/03/26 11:50:15;;;;;;;3.47;3.17;;;20.70;67.60;;;;;;5121835;28;20057;-37
2021/03/26 11:53:04;;;;;;;4.28;3.58;;;20.80;67.80;;;;;;5117594;28;20114;-37
2021/03/26 11:55:40;;;;;;;4.03;3.28;;;20.80;67.80;;;;;;5109898;28;20100;-37
2021/03/26 11:58:10;;;;;;;3.33;3.03;;;20.70;67.60;;;;;;5087964;28;20024;-37
2021/03/26 12:00:37;;;;;;;3.60;3.30;;;20.80;67.60;;;;;;5122818;28;20032;-38
2021/03/26 12:03:20;;;;;;;3.90;3.45;;;20.80;67.60;;;;;;5087638;28;20016;-37
2021/03/26 12:06:11;;;;;;;3.25;2.97;;;20.70;67.60;;;;;;5104671;28;20034;-38
2021/03/26 12:08:40;;;;;;;3.80;3.50;;;20.80;67.80;;;;;;5104819;28;20134;-37
2021/03/26 12:11:15;;;;;;;4.00;3.60;;;20.70;68.50;;;;;;5122740;28;20079;-37
2021/03/26 12:14:08;;;;;;;4.03;3.58;;;20.80;67.90;;;;;;5105156;28;20028;-37
2021/03/26 12:16:41;;;;;;;4.05;3.60;;;20.80;67.90;;;;;;5096422;28;20087;-37
2021/03/26 12:19:18;;;;;;;3.70;3.35;;;20.70;67.70;;;;;;5105853;28;20057;-37
2021/03/26 12:22:01;;;;;;;3.97;3.20;;;20.70;67.80;;;;;;5124713;28;20087;-37
2021/03/26 12:24:37;;;;;;;3.60;3.30;;;20.70;67.90;;;;;;5126690;28;20031;-37
2021/03/26 12:27:25;;;;;;;4.15;3.38;;;20.70;67.80;;;;;;5143525;28;20484;-37
2021/03/26 12:29:57;;;;;;;3.63;3.25;;;20.70;67.80;;;;;;5143420;28;20124;-37
2021/03/26 12:32:34;;;;;;;3.70;3.40;;;20.70;67.80;;;;;;5130359;28;20063;-37
2021/03/26 12:35:04;;;;;;;3.42;3.13;;;20.70;67.70;;;;;;5104656;28;20034;-37
2021/03/26 12:37:54;;;;;;;4.00;3.47;;;20.70;67.80;;;;;;5122756;28;20091;-37
2021/03/26 12:40:23;;;;;;;3.92;3.53;;;20.70;67.70;;;;;;5110959;28;20652;-37
2021/03/26 12:43:04;;;;;;;3.55;3.25;;;20.70;67.80;;;;;;5126280;28;20885;-37
2021/03/26 12:45:45;;;;;;;3.65;3.13;;;20.70;67.80;;;;;;5102364;27;20042;-37
2021/03/26 12:48:21;;;;;;;3.92;3.53;;;20.70;67.80;;;;;;5111958;27;20034;-38
2021/03/26 12:50:55;;;;;;;5.18;3.75;;;20.70;67.80;;;;;;5128485;27;20087;-38
2021/03/26 12:53:47;;;;;;;3.75;3.45;;;20.60;67.80;;;;;;5129006;27;20418;-37
2021/03/26 12:56:27;;;;;;;3.40;3.10;;;20.70;67.80;;;;;;5128462;27;20057;-37
2021/03/26 12:59:18;;;;;;;3.67;3.22;;;20.70;67.80;;;;;;5146976;27;20066;-37
2021/03/26 13:02:08;;;;;;;4.03;3.50;;;20.70;67.80;;;;;;5139153;27;20019;-38
2021/03/26 13:04:51;;;;;;;4.38;3.17;;;20.60;67.80;;;;;;5108535;28;20032;-37
2021/03/26 13:07:44;;;;;;;4.13;3.35;;;20.60;67.70;;;;;;5107563;28;20049;-38
2021/03/26 13:10:35;;;;;;;3.30;3.00;;;20.60;67.70;;;;;;5107518;28;20040;-38
2021/03/26 13:13:11;;;;;;;4.43;2.97;;;20.60;67.80;;;;;;5125643;28;20027;-39
2021/03/26 13:15:37;;;;;;;3.25;2.95;;;20.60;67.80;;;;;;5118552;27;20037;-38
2021/03/26 13:18:09;;;;;;;3.28;2.97;;;20.60;67.80;;;;;;5109235;28;20069;-37
2021/03/26 13:21:09;;;;;;;4.38;3.13;;;20.60;67.90;;;;;;5090955;28;20020;-37
2021/03/26 13:23:35;;;;;;;3.40;3.10;;;20.60;67.80;;;;;;5093261;28;20036;-37
2021/03/26 13:26:07;;;;;;;3.70;3.33;;;20.60;67.90;;;;;;5107654;28;20801;-37
2021/03/26 13:28:39;;;;;;;3.90;3.15;;;20.60;67.80;;;;;;5107138;28;20032;-37
2021/03/26 13:31:17;;;;;;;4.03;3.22;;;20.60;67.70;;;;;;5105250;28;20023;-37
2021/03/26 13:33:52;;;;;;;3.60;3.30;;;20.60;67.70;;;;;;5086513;28;20127;-37
2021/03/26 13:36:27;;;;;;;3.47;3.17;;;20.60;67.70;;;;;;5086830;28;20496;-37
2021/03/26 13:39:09;;;;;;;3.42;3.13;;;20.60;67.70;;;;;;5086920;28;20036;-37
2021/03/26 13:41:55;;;;;;;3.92;3.10;;;20.60;67.70;;;;;;5124724;27;20023;-37
2021/03/26 13:44:26;;;;;;;3.78;3.22;;;20.60;67.70;;;;;;5127435;27;20030;-37
2021/03/26 13:47:00;;;;;;;3.58;3.22;;;20.60;67.70;;;;;;5104871;28;20047;-37
2021/03/26 13:49:27;;;;;;;3.72;3.28;;;20.60;67.70;;;;;;5087499;28;20040;-37